Ft Devens, Massachusetts
Current Conditions -  °F | °C
As of 10:52 AM on Saturday 22 Nov 2014 (Local Time) from KFIT Reporting Station
Clear Clear  
Wind Chill: 27°   Ceiling: Unl
Heat Index: 33°   Visibility: 10mi
Dew Point:   Wind: 7mph
Humidity: 37%   Direction: 230°SW
Pressure: 30.29"   Gusts: NA
Location:  42.5336°N, 71.6215°W
Report Text: KFIT 221552Z AUTO 23006KT 10SM CLR 01/M13 A3029 RMK AO2 SLP264 T00061128
Loading
Personal Weather Stations






























Interactive Weather Map New forecast layout! Learn more

10-Day Weather Forecast

Advertisements
Track Severe Weather on mobile